Time;durP1;ratioP1;P1;durP2;ratioP2;P2;SDS_P1;SDS_P2;PMS_P1;PMS_P2;Temp;Humidity;BMP_temperature;BMP_pressure;BME280_temperature;BME280_humidity;BME280_pressure;Samples;Min_cycle;Max_cycle;Signal;HPM_P1;HPM_P2
2022/01/18 05:30:27;;;;;;;6.82;2.90;;;;;;;-1.37;79.17;101732.25;5622977;31;124385;-89
2022/01/18 05:33:30;;;;;;;10.07;2.90;;;;;;;-1.46;79.65;101736.38;5612874;31;34169;-89
2022/01/18 05:36:33;;;;;;;7.00;2.80;;;;;;;-1.46;79.59;101745.03;5603830;31;35998;-89
2022/01/18 05:39:36;;;;;;;9.10;2.90;;;;;;;-1.50;79.55;101754.50;5603523;31;33888;-88
2022/01/18 05:42:38;;;;;;;7.18;2.87;;;;;;;-1.57;79.92;101763.03;5609267;31;33806;-87
2022/01/18 05:45:41;;;;;;;8.30;3.17;;;;;;;-1.52;80.06;101760.53;5593433;31;33660;-87
2022/01/18 05:48:44;;;;;;;6.22;2.85;;;;;;;-1.52;80.13;101765.72;5606727;31;33799;-87
2022/01/18 05:51:47;;;;;;;7.87;2.80;;;;;;;-1.52;80.15;101761.41;5608616;31;34253;-89
2022/01/18 05:54:49;;;;;;;5.10;3.08;;;;;;;-1.38;81.83;101774.75;5603117;31;34506;-89
2022/01/18 05:57:52;;;;;;;6.97;3.10;;;;;;;-0.55;77.43;101772.06;5601300;31;34170;-87
2022/01/18 06:00:55;;;;;;;8.13;3.25;;;;;;;-0.95;77.91;101790.41;5586991;31;34016;-87
2022/01/18 06:07:01;;;;;;;9.13;3.10;;;;;;;-1.42;80.55;101809.34;5590551;31;34545;-87
2022/01/18 06:10:05;;;;;;;7.75;3.10;;;;;;;-1.43;81.09;101791.97;5591202;31;33768;-87
2022/01/18 06:13:08;;;;;;;9.60;3.47;;;;;;;-1.52;81.65;101808.25;5592394;31;34030;-88
2022/01/18 06:16:11;;;;;;;8.93;2.75;;;;;;;-1.53;82.09;101819.53;5599064;31;34327;-87
2022/01/18 06:19:14;;;;;;;6.12;3.00;;;;;;;-1.54;82.22;101817.78;5597848;31;34696;-88
2022/01/18 06:22:17;;;;;;;6.15;2.97;;;;;;;-1.53;82.43;101816.91;5591954;31;33817;-88
2022/01/18 06:25:20;;;;;;;8.07;3.35;;;;;;;-1.47;82.33;101810.09;5595448;31;34545;-88
2022/01/18 06:28:23;;;;;;;6.12;3.00;;;;;;;-1.52;82.68;101803.06;5597094;31;34440;-88
2022/01/18 06:31:26;;;;;;;11.50;3.37;;;;;;;-1.59;83.23;101789.84;5584267;31;34233;-87
2022/01/18 06:34:29;;;;;;;11.27;3.62;;;;;;;-1.65;83.61;101791.47;5590833;31;34537;-88
2022/01/18 06:37:32;;;;;;;10.80;3.40;;;;;;;-1.66;83.73;101794.06;5585124;31;35030;-87
2022/01/18 06:40:35;;;;;;;8.82;3.35;;;;;;;-1.63;83.23;101801.91;5584870;31;34105;-90
2022/01/18 06:43:38;;;;;;;5.35;2.90;;;;;;;-1.59;82.84;101805.47;5574154;31;34053;-89
2022/01/18 06:46:41;;;;;;;14.15;3.30;;;;;;;-1.55;82.50;101809.91;5574133;31;34455;-89
2022/01/18 06:49:44;;;;;;;12.68;3.53;;;;;;;-1.50;82.42;101811.78;5571112;31;33653;-89
2022/01/18 06:52:47;;;;;;;8.43;3.35;;;;;;;-1.49;82.70;101810.06;5588226;31;34366;-89
2022/01/18 06:55:53;;;;;;;7.72;3.35;;;;;;;-1.53;82.59;101818.62;5588006;31;34242;-89
2022/01/18 06:58:57;;;;;;;12.10;4.22;;;;;;;-1.41;82.36;101815.47;5570664;31;34301;-89
2022/01/18 07:02:00;;;;;;;11.35;3.40;;;;;;;-1.42;82.35;101811.06;5570820;31;34389;-89
2022/01/18 07:05:04;;;;;;;11.57;3.47;;;;;;;-1.37;82.32;101809.44;5572054;31;33834;-88
2022/01/18 07:08:07;;;;;;;10.48;3.05;;;;;;;-1.37;82.19;101815.56;5571694;31;34004;-89
2022/01/18 07:11:10;;;;;;;10.55;3.72;;;;;;;-1.26;81.89;101818.41;5579022;31;33990;-87
2022/01/18 07:14:12;;;;;;;9.52;3.72;;;;;;;-1.25;82.03;101822.75;5569967;32;34139;-86
2022/01/18 07:17:15;;;;;;;15.90;3.30;;;;;;;-1.21;82.44;101813.28;5584222;31;34479;-86
2022/01/18 07:20:18;;;;;;;11.52;3.40;;;;;;;-1.17;82.36;101809.06;5586422;31;34947;-86
2022/01/18 07:23:22;;;;;;;9.43;2.85;;;;;;;-1.18;82.21;101797.75;5572106;31;33998;-88
2022/01/18 07:26:25;;;;;;;9.43;3.40;;;;;;;-1.03;81.98;101796.28;5573782;31;33815;-87
2022/01/18 07:29:28;;;;;;;12.20;3.55;;;;;;;-1.01;82.05;101805.03;5583635;31;33994;-88
2022/01/18 07:32:30;;;;;;;7.07;3.22;;;;;;;-0.99;81.73;101805.94;5577767;31;34349;-88
2022/01/18 07:35:35;;;;;;;9.13;3.10;;;;;;;-0.89;81.80;101802.69;5589224;31;33917;-87
2022/01/18 07:38:42;;;;;;;11.60;3.60;;;;;;;-0.88;81.70;101807.06;5591193;31;33970;-89
2022/01/18 07:41:44;;;;;;;11.35;3.40;;;;;;;-0.83;81.75;101813.25;5590332;31;33788;-89
2022/01/18 07:44:49;;;;;;;15.50;3.97;;;;;;;-0.84;81.49;101821.88;5580325;31;34281;-88
2022/01/18 07:47:51;;;;;;;7.97;3.83;;;;;;;-0.74;81.28;101830.81;5587540;31;33966;-88
2022/01/18 07:50:54;;;;;;;12.40;3.95;;;;;;;-0.77;81.15;101841.16;5573959;31;33853;-89
2022/01/18 07:53:57;;;;;;;12.13;3.78;;;;;;;-0.76;81.10;101845.50;5581485;31;35172;-89
2022/01/18 07:57:00;;;;;;;10.70;3.60;;;;;;;-0.74;81.15;101850.75;5583213;31;34662;-89
2022/01/18 08:00:04;;;;;;;11.57;4.47;;;;;;;-0.72;81.24;101855.16;5587908;31;33949;-91
2022/01/18 08:03:15;;;;;;;14.02;3.85;;;;;;;-0.60;81.02;101867.56;5569330;32;35162;-89
2022/01/18 08:06:18;;;;;;;12.18;3.50;;;;;;;-0.48;80.07;101872.16;5574601;32;34189;-89
2022/01/18 08:09:22;;;;;;;13.10;4.93;;;;;;;-0.49;80.15;101886.03;5575220;32;33922;-88
2022/01/18 08:12:24;;;;;;;8.02;3.15;;;;;;;-0.47;79.45;101886.94;5567776;32;34678;-87
2022/01/18 08:15:39;;;;;;;10.13;3.70;;;;;;;-0.44;79.61;101892.22;5574454;31;34254;-86
2022/01/18 08:18:42;;;;;;;16.55;4.32;;;;;;;-0.42;79.61;101895.75;5569981;32;33930;-87
2022/01/18 08:21:45;;;;;;;8.15;3.95;;;;;;;-0.35;79.78;101896.72;5570640;32;34099;-87
2022/01/18 08:24:48;;;;;;;11.63;4.47;;;;;;;-0.39;79.15;101902.75;5570129;32;33929;-87
2022/01/18 08:27:51;;;;;;;10.55;4.72;;;;;;;-0.35;79.94;101917.59;5562876;32;33777;-87
2022/01/18 08:30:54;;;;;;;7.55;3.58;;;;;;;-0.35;79.80;101917.59;5568823;32;34464;-89
2022/01/18 08:33:57;;;;;;;14.25;4.28;;;;;;;-0.21;79.69;101917.03;5570717;32;34057;-89
2022/01/18 08:37:00;;;;;;;12.82;4.15;;;;;;;-0.17;79.03;101931.84;5576532;32;34326;-87
2022/01/18 08:40:04;;;;;;;11.73;4.40;;;;;;;-0.21;79.32;101937.88;5579691;32;34962;-88
2022/01/18 08:43:09;;;;;;;15.82;4.35;;;;;;;-0.19;79.32;101939.66;5577223;31;35262;-91
2022/01/18 08:46:12;;;;;;;14.77;4.40;;;;;;;-0.05;78.53;101932.09;5574002;31;34183;-91
2022/01/18 08:49:15;;;;;;;10.18;4.12;;;;;;;0.01;78.34;101931.34;5585407;31;35281;-91
2022/01/18 08:52:18;;;;;;;13.88;5.10;;;;;;;0.01;78.09;101947.00;5581253;31;34224;-92
2022/01/18 08:55:22;;;;;;;14.05;4.87;;;;;;;0.08;78.13;101941.06;5579764;31;33851;-89
2022/01/18 08:58:26;;;;;;;10.63;5.20;;;;;;;0.31;77.68;101953.66;5569952;32;34543;-88
2022/01/18 09:01:29;;;;;;;11.15;4.25;;;;;;;0.26;76.83;101952.69;5568471;32;34436;-87
2022/01/18 09:04:33;;;;;;;13.18;4.15;;;;;;;0.36;75.44;101964.19;5569692;32;34124;-87
2022/01/18 09:07:38;;;;;;;12.65;4.15;;;;;;;0.49;74.99;101960.03;5569325;32;34290;-88
2022/01/18 09:10:41;;;;;;;14.75;4.62;;;;;;;0.65;76.11;101969.03;5570401;32;33913;-88
2022/01/18 09:13:44;;;;;;;12.60;4.00;;;;;;;1.56;77.00;101963.44;5580595;31;33666;-87
2022/01/18 09:16:46;;;;;;;8.40;3.87;;;;;;;2.05;71.67;101957.94;5572667;31;33919;-88
2022/01/18 09:19:49;;;;;;;13.30;3.92;;;;;;;2.10;70.48;101958.84;5574817;31;33915;-86
2022/01/18 09:22:52;;;;;;;15.00;4.25;;;;;;;1.52;69.61;101972.09;5588859;31;34302;-87
2022/01/18 09:25:55;;;;;;;14.13;4.55;;;;;;;1.30;70.07;101971.78;5594459;31;35104;-87
2022/01/18 09:28:58;;;;;;;11.15;3.80;;;;;;;1.35;70.41;101980.56;5596935;31;34334;-86
2022/01/18 09:32:04;;;;;;;10.95;3.62;;;;;;;2.72;66.16;101968.19;5591235;31;34128;-86
2022/01/18 09:35:07;;;;;;;7.50;4.10;;;;;;;3.95;61.54;101963.66;5584115;31;33813;-85
2022/01/18 09:38:10;;;;;;;12.27;4.50;;;;;;;5.11;56.04;101963.81;5568897;32;33821;-86
2022/01/18 09:41:17;;;;;;;10.68;3.55;;;;;;;5.43;54.71;101972.50;5568491;32;33757;-85
2022/01/18 09:44:20;;;;;;;12.95;4.53;;;;;;;5.84;53.87;101973.25;5572317;32;33737;-85
2022/01/18 09:47:23;;;;;;;11.00;3.70;;;;;;;6.42;51.48;101975.59;5572332;31;33980;-86
2022/01/18 09:50:31;;;;;;;8.85;3.85;;;;;;;7.09;49.93;101961.91;5570630;31;32161;-85
2022/01/18 09:53:33;;;;;;;11.85;3.67;;;;;;;8.41;47.49;101967.34;5580459;31;34099;-88
2022/01/18 09:56:36;;;;;;;10.18;3.65;;;;;;;8.45;45.57;101977.00;5569729;31;34243;-86
2022/01/18 09:59:39;;;;;;;11.20;3.97;;;;;;;9.19;45.56;101977.56;5567768;32;33941;-86
2022/01/18 10:02:42;;;;;;;13.38;3.65;;;;;;;9.30;43.91;101974.69;5566397;32;34042;-85
2022/01/18 10:05:48;;;;;;;12.90;4.03;;;;;;;9.67;42.19;101970.47;5574096;31;34487;-86
2022/01/18 10:08:51;;;;;;;7.28;3.70;;;;;;;7.67;46.81;101985.94;5574946;31;33984;-86
2022/01/18 10:12:15;;;;;;;8.50;3.72;;;;;;;6.94;49.70;101978.75;5576714;31;33951;-86
2022/01/18 10:15:22;;;;;;;8.50;4.10;;;;;;;5.75;52.44;101983.84;5577074;31;33465;-87
2022/01/18 10:18:37;;;;;;;14.38;4.37;;;;;;;4.57;57.27;101980.47;5586825;31;33839;-87
2022/01/18 10:21:46;;;;;;;13.48;4.25;;;;;;;4.49;58.61;101974.34;5597934;31;34789;-85
2022/01/18 10:24:49;;;;;;;17.92;3.97;;;;;;;3.73;59.50;101981.97;5586658;31;34868;-90
2022/01/18 10:27:53;;;;;;;12.52;4.50;;;;;;;4.55;58.63;101981.34;5591568;31;35261;-91
2022/01/18 10:31:00;;;;;;;11.30;4.15;;;;;;;5.16;57.53;101976.94;5584601;31;34237;-88
2022/01/18 10:37:43;;;;;;;9.77;3.55;;;;;;;5.02;57.42;101957.69;5569712;32;34480;-85
2022/01/18 10:40:46;;;;;;;5.50;3.25;;;;;;;4.72;58.58;101962.94;5569234;32;34549;-85
2022/01/18 10:44:23;;;;;;;11.45;3.97;;;;;;;4.49;58.28;101960.31;5569244;32;33696;-85
2022/01/18 10:47:26;;;;;;;11.85;3.55;;;;;;;4.56;58.74;101970.84;5538022;32;34500;-85
2022/01/18 10:50:34;;;;;;;10.80;3.85;;;;;;;4.60;58.69;101969.06;5569330;32;33912;-84
2022/01/18 10:53:37;;;;;;;10.88;3.47;;;;;;;4.91;57.50;101965.56;5572632;32;34046;-84
2022/01/18 10:56:43;;;;;;;11.65;3.78;;;;;;;4.31;57.92;101983.94;5574335;31;34399;-85
2022/01/18 10:59:46;;;;;;;10.52;4.22;;;;;;;3.77;60.07;101981.09;5571272;31;34064;-85
2022/01/18 11:02:54;;;;;;;12.23;3.80;;;;;;;4.24;59.69;101976.91;5585390;31;34863;-86
2022/01/18 11:05:57;;;;;;;7.37;3.70;;;;;;;4.55;58.58;101978.72;5582670;31;33942;-85
2022/01/18 11:09:14;;;;;;;11.75;4.10;;;;;;;5.03;56.42;101985.75;5593382;31;34247;-85
2022/01/18 11:12:19;;;;;;;12.37;4.00;;;;;;;4.80;56.47;101981.34;5576935;31;34374;-85
2022/01/18 11:15:25;;;;;;;18.33;3.97;;;;;;;4.70;56.77;101994.50;5596820;31;34965;-85
2022/01/18 11:18:30;;;;;;;14.15;3.95;;;;;;;4.61;57.47;101980.44;5594277;31;34723;-85
2022/01/18 11:21:33;;;;;;;15.45;4.57;;;;;;;4.43;57.23;101971.69;5583529;31;34034;-86
2022/01/18 11:24:42;;;;;;;10.82;4.40;;;;;;;4.33;58.14;101991.81;5594927;31;34903;-90
2022/01/18 11:27:49;;;;;;;14.25;4.03;;;;;;;6.11;52.70;101973.16;5573853;31;34571;-90
2022/01/18 11:30:52;;;;;;;10.57;3.78;;;;;;;4.88;55.38;101976.09;5589177;31;34901;-86
2022/01/18 11:34:00;;;;;;;17.65;4.07;;;;;;;3.64;59.21;101967.91;5595211;31;34126;-87
2022/01/18 11:37:26;;;;;;;9.23;3.60;;;;;;;3.44;61.16;101974.81;5579135;31;35266;-85
2022/01/18 11:40:54;;;;;;;14.30;4.78;;;;;;;3.60;61.27;101960.91;5580339;31;34853;-86
2022/01/18 11:43:59;;;;;;;11.52;3.70;;;;;;;4.56;58.38;101967.31;5579201;31;34002;-85
2022/01/18 11:47:04;;;;;;;12.65;3.87;;;;;;;7.01;51.11;101978.66;5589597;31;34243;-86
2022/01/18 11:50:15;;;;;;;12.15;3.40;;;;;;;5.37;54.05;101988.31;5569809;32;32381;-85
2022/01/18 11:54:18;;;;;;;7.80;3.70;;;;;;;3.91;58.97;101982.06;5571402;32;34119;-86
2022/01/18 11:57:15;;;;;;;8.77;3.30;;;;;;;4.12;58.65;101992.63;5563423;32;33633;-84
2022/01/18 12:00:24;;;;;;;10.18;3.60;;;;;;;4.21;58.43;101994.41;5576689;32;34173;-85
2022/01/18 12:03:41;;;;;;;7.95;3.60;;;;;;;3.93;59.43;101999.56;5571909;32;33971;-89
2022/01/18 12:06:45;;;;;;;13.45;4.20;;;;;;;3.69;60.51;101995.94;5587322;31;33750;-86
2022/01/18 12:09:48;;;;;;;7.32;3.67;;;;;;;3.69;61.32;101986.34;5581555;31;34620;-85
2022/01/18 12:12:54;;;;;;;13.35;3.87;;;;;;;3.96;59.50;101989.06;5578336;31;34343;-85
2022/01/18 12:15:59;;;;;;;9.57;4.00;;;;;;;3.21;62.27;101988.66;5581589;31;35084;-86
2022/01/18 12:19:05;;;;;;;13.82;4.20;;;;;;;3.41;62.45;101986.16;5573821;31;34101;-84
2022/01/18 12:22:08;;;;;;;12.25;3.83;;;;;;;3.32;62.05;101987.00;5572165;31;34534;-84
2022/01/18 12:25:31;;;;;;;11.48;3.47;;;;;;;3.40;62.19;101986.16;5584523;31;33875;-85
2022/01/18 12:29:21;;;;;;;11.40;3.40;;;;;;;3.28;61.19;101976.47;5572150;31;33700;-86
2022/01/18 12:32:40;;;;;;;10.45;3.55;;;;;;;2.95;61.95;101977.12;5580356;31;34155;-86
2022/01/18 12:35:44;;;;;;;9.70;3.75;;;;;;;2.93;62.30;101988.47;5575254;31;34282;-86
2022/01/18 12:39:00;;;;;;;11.70;3.80;;;;;;;3.12;62.19;101988.59;5557765;32;33697;-85
2022/01/18 12:42:20;;;;;;;9.15;3.87;;;;;;;3.00;62.05;101994.62;5575040;31;34078;-85
2022/01/18 12:45:29;;;;;;;8.85;3.62;;;;;;;2.88;62.54;101982.28;5590633;31;34094;-90
2022/01/18 12:48:35;;;;;;;14.93;4.00;;;;;;;3.02;62.23;101974.56;5582113;31;34659;-87
2022/01/18 12:51:37;;;;;;;11.90;3.95;;;;;;;2.99;62.17;101977.12;5574316;32;33859;-86
2022/01/18 12:54:42;;;;;;;10.15;3.60;;;;;;;2.86;62.49;101995.38;5571966;32;34242;-85
2022/01/18 12:58:01;;;;;;;8.40;3.37;;;;;;;2.86;62.54;101982.28;5574598;31;33989;-85
2022/01/18 13:01:12;;;;;;;8.38;3.20;;;;;;;2.85;62.68;101990.16;5584102;31;34691;-84
2022/01/18 13:04:19;;;;;;;11.07;3.78;;;;;;;2.86;62.55;101998.00;5589228;31;34228;-85
2022/01/18 13:07:23;;;;;;;12.60;3.75;;;;;;;2.85;62.62;101991.00;5577286;31;33810;-85
2022/01/18 13:10:54;;;;;;;12.98;4.03;;;;;;;3.00;62.14;101992.87;5581519;31;34027;-86
2022/01/18 13:14:13;;;;;;;13.10;4.00;;;;;;;2.85;62.62;101983.16;5584376;31;35256;-86
2022/01/18 13:24:54;;;;;;;11.57;4.03;;;;;;;2.77;63.06;101983.06;5569645;31;33880;-90
2022/01/18 13:28:02;;;;;;;9.48;4.12;;;;;;;2.80;62.99;101988.38;5577276;31;33300;-86
2022/01/18 13:31:16;;;;;;;13.00;3.90;;;;;;;2.75;63.29;101990.06;5585348;31;34801;-85
2022/01/18 13:34:29;;;;;;;16.70;3.85;;;;;;;2.78;63.23;101995.34;5579313;31;34305;-85
2022/01/18 13:37:34;;;;;;;11.20;3.58;;;;;;;2.84;62.98;101994.50;5573827;31;34226;-85
2022/01/18 13:40:39;;;;;;;9.82;4.22;;;;;;;2.95;62.45;101995.47;5579301;32;34352;-86
2022/01/18 13:43:43;;;;;;;10.70;4.37;;;;;;;2.87;62.41;101993.66;5588425;31;34667;-85
2022/01/18 13:46:45;;;;;;;11.10;3.62;;;;;;;2.79;62.37;102004.97;5580137;31;34150;-87
2022/01/18 13:49:48;;;;;;;9.38;3.67;;;;;;;2.71;62.81;102008.38;5574793;31;33816;-86
2022/01/18 13:53:00;;;;;;;8.07;3.58;;;;;;;2.74;62.18;102006.66;5581739;31;33703;-86
2022/01/18 13:56:14;;;;;;;9.50;4.15;;;;;;;2.73;61.69;102020.63;5596359;31;34846;-87
2022/01/18 13:59:19;;;;;;;9.13;3.12;;;;;;;2.87;61.93;102022.50;5594288;31;34735;-85
2022/01/18 14:02:23;;;;;;;11.27;3.70;;;;;;;2.88;61.59;102026.87;5590916;31;34530;-85
2022/01/18 14:05:27;;;;;;;10.27;3.25;;;;;;;3.10;61.39;102025.28;5581851;31;34139;-85
2022/01/18 14:08:35;;;;;;;9.93;3.17;;;;;;;3.14;60.62;102024.47;5592911;31;33789;-85
2022/01/18 14:11:46;;;;;;;9.65;3.97;;;;;;;3.31;59.76;102032.44;5591923;31;34479;-85
2022/01/18 14:14:54;;;;;;;11.18;3.80;;;;;;;3.27;59.46;102028.03;5591708;31;33650;-85
2022/01/18 14:18:04;;;;;;;6.28;3.22;;;;;;;2.84;60.95;102031.19;5581979;31;34584;-89
2022/01/18 14:21:30;;;;;;;10.60;3.17;;;;;;;2.92;60.95;102028.66;5579605;31;34128;-90
2022/01/18 14:24:38;;;;;;;12.45;3.50;;;;;;;2.86;60.38;102026.84;5591150;31;34060;-85
2022/01/18 14:27:43;;;;;;;10.27;3.28;;;;;;;2.90;60.42;102019.87;5577367;31;33600;-86
2022/01/18 14:30:47;;;;;;;9.25;3.53;;;;;;;2.68;61.08;102012.69;5564635;32;33942;-85
2022/01/18 14:33:50;;;;;;;11.10;4.10;;;;;;;2.63;61.42;102011.81;5564834;32;33722;-85
2022/01/18 14:36:55;;;;;;;7.45;3.78;;;;;;;2.56;61.64;102008.22;5569222;31;33842;-85
2022/01/18 14:40:00;;;;;;;9.10;3.72;;;;;;;2.49;61.60;102013.37;5569159;32;33972;-84
2022/01/18 14:43:13;;;;;;;11.07;4.05;;;;;;;2.52;62.05;102021.28;5571004;32;34411;-85
2022/01/18 14:49:46;;;;;;;11.60;3.65;;;;;;;2.64;61.47;102015.28;5545322;31;33975;-84
2022/01/18 14:52:51;;;;;;;9.02;4.12;;;;;;;2.41;62.31;102016.81;5574942;31;32490;-85
2022/01/18 14:55:54;;;;;;;8.90;3.87;;;;;;;2.26;62.67;102024.50;5574943;32;34388;-85
2022/01/18 14:58:57;;;;;;;11.00;3.87;;;;;;;2.20;63.10;102021.81;5570054;31;35355;-85
2022/01/18 15:02:00;;;;;;;12.85;3.92;;;;;;;2.05;63.84;102030.37;5569687;31;33315;-86
2022/01/18 15:05:04;;;;;;;12.98;4.53;;;;;;;2.02;64.08;102033.81;5570293;32;34544;-85
2022/01/18 15:08:07;;;;;;;9.38;3.90;;;;;;;2.12;63.97;102045.28;5571273;32;34715;-84
2022/01/18 15:11:10;;;;;;;10.23;4.10;;;;;;;2.07;64.04;102041.72;5573233;32;33947;-83
2022/01/18 15:14:13;;;;;;;10.57;4.15;;;;;;;1.80;65.19;102041.38;5573994;32;34289;-86
2022/01/18 15:17:15;;;;;;;16.40;4.87;;;;;;;1.80;65.32;102036.16;5554643;31;34014;-86
2022/01/18 15:20:19;;;;;;;12.63;4.60;;;;;;;1.73;65.42;102018.59;5561068;31;33687;-86
2022/01/18 15:23:22;;;;;;;14.07;4.72;;;;;;;1.70;65.54;102029.00;5557150;32;34002;-85
2022/01/18 15:26:28;;;;;;;9.43;4.35;;;;;;;1.78;65.35;102031.75;5562841;31;35883;-86
2022/01/18 15:29:33;;;;;;;9.23;4.28;;;;;;;1.75;65.31;102048.28;5564478;31;34212;-85
2022/01/18 15:32:42;;;;;;;14.15;4.35;;;;;;;1.65;65.89;102064.72;5573033;32;33738;-85
2022/01/18 15:35:44;;;;;;;17.95;4.80;;;;;;;1.59;66.16;102075.97;5574226;31;34188;-89
2022/01/18 15:38:47;;;;;;;7.60;3.78;;;;;;;1.47;66.58;102090.59;5571830;32;35294;-85
2022/01/18 15:41:50;;;;;;;11.98;4.60;;;;;;;1.33;66.76;102087.78;5570453;32;34028;-86
2022/01/18 15:44:53;;;;;;;11.15;4.30;;;;;;;1.27;67.26;102092.03;5570423;32;33952;-85
2022/01/18 15:47:56;;;;;;;13.88;5.25;;;;;;;1.35;66.87;102082.56;5568083;31;34373;-85
2022/01/18 15:51:00;;;;;;;13.80;4.50;;;;;;;1.43;66.75;102080.06;5571236;31;34673;-85
2022/01/18 15:54:03;;;;;;;10.85;4.32;;;;;;;1.42;66.74;102075.72;5578291;31;33964;-84
2022/01/18 15:57:07;;;;;;;11.77;4.35;;;;;;;1.36;66.95;102076.50;5579377;32;33907;-85
2022/01/18 16:00:11;;;;;;;12.25;4.22;;;;;;;1.25;67.54;102092.00;5556208;32;34608;-86
2022/01/18 16:03:15;;;;;;;13.05;4.35;;;;;;;1.38;67.30;102102.66;5542509;32;33870;-84
2022/01/18 16:06:18;;;;;;;11.07;4.20;;;;;;;1.24;67.65;102115.50;5550503;32;34430;-85
2022/01/18 16:09:22;;;;;;;13.70;4.32;;;;;;;1.30;67.68;102118.22;5550431;32;33993;-86
2022/01/18 16:12:25;;;;;;;14.65;5.22;;;;;;;1.13;68.34;102116.19;5550397;32;33088;-85
2022/01/18 16:15:28;;;;;;;15.82;5.47;;;;;;;1.10;69.13;102117.87;5565385;32;35337;-85
2022/01/18 16:18:31;;;;;;;13.50;4.70;;;;;;;1.06;69.39;102123.03;5555042;32;36079;-85
2022/01/18 16:21:36;;;;;;;10.00;4.60;;;;;;;1.08;69.51;102104.78;5565425;32;34953;-85
2022/01/18 16:24:38;;;;;;;16.15;5.00;;;;;;;0.98;70.32;102106.34;5560211;32;33917;-85
2022/01/18 16:27:41;;;;;;;20.98;5.43;;;;;;;0.96;70.27;102112.41;5571391;31;34758;-85
2022/01/18 16:30:46;;;;;;;9.65;4.80;;;;;;;0.97;70.04;102116.78;5552335;32;34264;-85
2022/01/18 16:33:50;;;;;;;17.48;5.70;;;;;;;1.01;69.69;102122.06;5551964;32;34734;-86
